sensor_id;sensor_type;location;lat;lon;timestamp;P1;durP1;ratioP1;P2;durP2;ratioP2
14013;SDS011;49110;52.584;13.408;2023-04-23T00:00:07;8.27;;;6.30;;
14013;SDS011;49110;52.584;13.408;2023-04-23T00:01:12;7.60;;;6.70;;
14013;SDS011;49110;52.584;13.408;2023-04-23T00:02:14;9.47;;;6.60;;
14013;SDS011;49110;52.584;13.408;2023-04-23T00:03:15;9.23;;;6.50;;
14013;SDS011;49110;52.584;13.408;2023-04-23T00:04:18;9.10;;;6.27;;
14013;SDS011;49110;52.584;13.408;2023-04-23T00:05:21;7.60;;;6.83;;
14013;SDS011;49110;52.584;13.408;2023-04-23T00:06:23;7.67;;;6.87;;
14013;SDS011;49110;52.584;13.408;2023-04-23T00:07:27;8.70;;;6.87;;
14013;SDS011;49110;52.584;13.408;2023-04-23T00:08:28;8.47;;;6.50;;
14013;SDS011;49110;52.584;13.408;2023-04-23T00:09:30;9.60;;;6.33;;
14013;SDS011;49110;52.584;13.408;2023-04-23T00:10:31;7.90;;;7.00;;
14013;SDS011;49110;52.584;13.408;2023-04-23T00:11:32;7.47;;;6.70;;
14013;SDS011;49110;52.584;13.408;2023-04-23T00:12:33;8.40;;;7.10;;
14013;SDS011;49110;52.584;13.408;2023-04-23T00:13:33;7.33;;;6.33;;
14013;SDS011;49110;52.584;13.408;2023-04-23T00:14:35;7.93;;;7.13;;
14013;SDS011;49110;52.584;13.408;2023-04-23T00:15:36;8.73;;;7.63;;
14013;SDS011;49110;52.584;13.408;2023-04-23T00:16:38;6.87;;;6.17;;
14013;SDS011;49110;52.584;13.408;2023-04-23T00:17:38;8.57;;;6.93;;
14013;SDS011;49110;52.584;13.408;2023-04-23T00:18:39;8.70;;;7.00;;
14013;SDS011;49110;52.584;13.408;2023-04-23T00:19:39;7.73;;;6.93;;
14013;SDS011;49110;52.584;13.408;2023-04-23T00:20:40;9.20;;;6.27;;
14013;SDS011;49110;52.584;13.408;2023-04-23T00:21:40;7.27;;;6.57;;
14013;SDS011;49110;52.584;13.408;2023-04-23T00:22:41;8.50;;;7.03;;
14013;SDS011;49110;52.584;13.408;2023-04-23T00:23:42;8.30;;;6.40;;
14013;SDS011;49110;52.584;13.408;2023-04-23T00:24:42;7.53;;;6.80;;
14013;SDS011;49110;52.584;13.408;2023-04-23T00:25:43;7.47;;;6.40;;
14013;SDS011;49110;52.584;13.408;2023-04-23T00:26:43;7.70;;;6.97;;
14013;SDS011;49110;52.584;13.408;2023-04-23T00:27:44;8.73;;;6.53;;
14013;SDS011;49110;52.584;13.408;2023-04-23T00:28:44;7.27;;;6.60;;
14013;SDS011;49110;52.584;13.408;2023-04-23T00:29:45;7.30;;;6.60;;
14013;SDS011;49110;52.584;13.408;2023-04-23T00:30:46;10.00;;;7.17;;
14013;SDS011;49110;52.584;13.408;2023-04-23T00:31:46;7.63;;;6.60;;
14013;SDS011;49110;52.584;13.408;2023-04-23T00:32:47;7.33;;;6.53;;
14013;SDS011;49110;52.584;13.408;2023-04-23T00:33:47;8.70;;;6.67;;
14013;SDS011;49110;52.584;13.408;2023-04-23T00:34:47;7.93;;;7.13;;
14013;SDS011;49110;52.584;13.408;2023-04-23T00:35:48;9.73;;;7.00;;
14013;SDS011;49110;52.584;13.408;2023-04-23T00:36:48;12.47;;;7.33;;
14013;SDS011;49110;52.584;13.408;2023-04-23T00:37:49;7.63;;;6.83;;
14013;SDS011;49110;52.584;13.408;2023-04-23T00:38:50;8.10;;;6.33;;
14013;SDS011;49110;52.584;13.408;2023-04-23T00:39:50;9.27;;;7.23;;
14013;SDS011;49110;52.584;13.408;2023-04-23T00:40:51;8.03;;;6.70;;
14013;SDS011;49110;52.584;13.408;2023-04-23T00:41:51;7.30;;;6.33;;
14013;SDS011;49110;52.584;13.408;2023-04-23T00:42:52;9.33;;;6.23;;
14013;SDS011;49110;52.584;13.408;2023-04-23T00:43:52;7.27;;;6.40;;
14013;SDS011;49110;52.584;13.408;2023-04-23T00:44:56;7.20;;;6.50;;
14013;SDS011;49110;52.584;13.408;2023-04-23T00:45:57;7.90;;;6.63;;
14013;SDS011;49110;52.584;13.408;2023-04-23T00:46:57;7.83;;;7.07;;
14013;SDS011;49110;52.584;13.408;2023-04-23T00:47:59;8.17;;;6.60;;
14013;SDS011;49110;52.584;13.408;2023-04-23T00:49:00;7.40;;;6.70;;
14013;SDS011;49110;52.584;13.408;2023-04-23T00:50:02;8.33;;;6.57;;
14013;SDS011;49110;52.584;13.408;2023-04-23T00:51:03;8.50;;;7.10;;
14013;SDS011;49110;52.584;13.408;2023-04-23T00:52:04;6.93;;;6.13;;
14013;SDS011;49110;52.584;13.408;2023-04-23T00:53:05;7.83;;;6.03;;
14013;SDS011;49110;52.584;13.408;2023-04-23T00:54:06;7.97;;;7.03;;
14013;SDS011;49110;52.584;13.408;2023-04-23T00:55:06;7.60;;;6.80;;
14013;SDS011;49110;52.584;13.408;2023-04-23T00:56:08;7.80;;;7.00;;
14013;SDS011;49110;52.584;13.408;2023-04-23T00:57:09;7.57;;;6.77;;
14013;SDS011;49110;52.584;13.408;2023-04-23T00:58:10;7.97;;;6.57;;
14013;SDS011;49110;52.584;13.408;2023-04-23T00:59:10;7.13;;;6.20;;
14013;SDS011;49110;52.584;13.408;2023-04-23T01:00:11;6.73;;;6.03;;
14013;SDS011;49110;52.584;13.408;2023-04-23T01:01:13;6.57;;;5.83;;
14013;SDS011;49110;52.584;13.408;2023-04-23T01:02:13;7.47;;;6.37;;
14013;SDS011;49110;52.584;13.408;2023-04-23T01:03:15;9.10;;;6.40;;
14013;SDS011;49110;52.584;13.408;2023-04-23T01:04:17;9.37;;;7.00;;
14013;SDS011;49110;52.584;13.408;2023-04-23T01:05:19;10.57;;;6.47;;
14013;SDS011;49110;52.584;13.408;2023-04-23T01:06:22;9.10;;;5.90;;
14013;SDS011;49110;52.584;13.408;2023-04-23T01:07:24;7.57;;;6.70;;
14013;SDS011;49110;52.584;13.408;2023-04-23T01:08:26;8.23;;;6.73;;
14013;SDS011;49110;52.584;13.408;2023-04-23T01:09:27;10.47;;;6.63;;
14013;SDS011;49110;52.584;13.408;2023-04-23T01:10:28;10.03;;;6.80;;
14013;SDS011;49110;52.584;13.408;2023-04-23T01:11:31;10.60;;;6.77;;
14013;SDS011;49110;52.584;13.408;2023-04-23T01:12:32;6.77;;;6.20;;
14013;SDS011;49110;52.584;13.408;2023-04-23T01:13:33;8.30;;;7.50;;
14013;SDS011;49110;52.584;13.408;2023-04-23T01:14:35;7.87;;;6.53;;
14013;SDS011;49110;52.584;13.408;2023-04-23T01:15:36;10.10;;;6.30;;
14013;SDS011;49110;52.584;13.408;2023-04-23T01:16:37;8.47;;;6.57;;
14013;SDS011;49110;52.584;13.408;2023-04-23T01:17:37;8.23;;;7.43;;
14013;SDS011;49110;52.584;13.408;2023-04-23T01:18:38;8.53;;;7.50;;
14013;SDS011;49110;52.584;13.408;2023-04-23T01:19:39;7.40;;;6.70;;
14013;SDS011;49110;52.584;13.408;2023-04-23T01:20:40;8.50;;;6.80;;
14013;SDS011;49110;52.584;13.408;2023-04-23T01:21:42;8.23;;;7.23;;
14013;SDS011;49110;52.584;13.408;2023-04-23T01:22:42;8.47;;;6.30;;
14013;SDS011;49110;52.584;13.408;2023-04-23T01:23:43;9.60;;;7.00;;
14013;SDS011;49110;52.584;13.408;2023-04-23T01:24:43;7.83;;;6.80;;
14013;SDS011;49110;52.584;13.408;2023-04-23T01:25:44;11.23;;;6.80;;
14013;SDS011;49110;52.584;13.408;2023-04-23T01:26:45;7.30;;;6.37;;
14013;SDS011;49110;52.584;13.408;2023-04-23T01:27:46;7.63;;;6.57;;
14013;SDS011;49110;52.584;13.408;2023-04-23T01:28:47;7.20;;;6.30;;
14013;SDS011;49110;52.584;13.408;2023-04-23T01:29:48;9.90;;;6.50;;
14013;SDS011;49110;52.584;13.408;2023-04-23T01:30:48;7.00;;;6.30;;
14013;SDS011;49110;52.584;13.408;2023-04-23T01:31:50;7.80;;;6.33;;
14013;SDS011;49110;52.584;13.408;2023-04-23T01:32:53;7.10;;;6.17;;
14013;SDS011;49110;52.584;13.408;2023-04-23T01:33:54;10.27;;;6.83;;
14013;SDS011;49110;52.584;13.408;2023-04-23T01:34:55;8.20;;;6.97;;
14013;SDS011;49110;52.584;13.408;2023-04-23T01:35:56;7.80;;;6.80;;
14013;SDS011;49110;52.584;13.408;2023-04-23T01:36:57;7.53;;;6.63;;
14013;SDS011;49110;52.584;13.408;2023-04-23T01:37:58;8.17;;;7.33;;
14013;SDS011;49110;52.584;13.408;2023-04-23T01:39:02;9.27;;;6.97;;
14013;SDS011;49110;52.584;13.408;2023-04-23T01:40:02;9.53;;;6.63;;
14013;SDS011;49110;52.584;13.408;2023-04-23T01:41:03;9.30;;;6.83;;
14013;SDS011;49110;52.584;13.408;2023-04-23T01:42:04;9.33;;;6.63;;
14013;SDS011;49110;52.584;13.408;2023-04-23T01:43:07;9.13;;;6.50;;
14013;SDS011;49110;52.584;13.408;2023-04-23T01:44:07;9.37;;;7.10;;
14013;SDS011;49110;52.584;13.408;2023-04-23T01:45:09;9.90;;;6.87;;
14013;SDS011;49110;52.584;13.408;2023-04-23T01:46:09;8.10;;;7.30;;
14013;SDS011;49110;52.584;13.408;2023-04-23T01:47:10;7.63;;;6.80;;
14013;SDS011;49110;52.584;13.408;2023-04-23T01:48:11;8.67;;;6.50;;
14013;SDS011;49110;52.584;13.408;2023-04-23T01:49:12;7.90;;;6.93;;
14013;SDS011;49110;52.584;13.408;2023-04-23T01:50:13;10.27;;;6.83;;
14013;SDS011;49110;52.584;13.408;2023-04-23T01:51:14;8.77;;;6.77;;
14013;SDS011;49110;52.584;13.408;2023-04-23T01:52:14;8.13;;;7.03;;
14013;SDS011;49110;52.584;13.408;2023-04-23T01:53:15;8.70;;;6.80;;
14013;SDS011;49110;52.584;13.408;2023-04-23T01:54:15;7.10;;;6.33;;
14013;SDS011;49110;52.584;13.408;2023-04-23T01:55:16;10.37;;;6.93;;
14013;SDS011;49110;52.584;13.408;2023-04-23T01:56:20;9.53;;;6.70;;
14013;SDS011;49110;52.584;13.408;2023-04-23T01:57:24;9.17;;;6.37;;
14013;SDS011;49110;52.584;13.408;2023-04-23T01:58:25;8.73;;;6.37;;
14013;SDS011;49110;52.584;13.408;2023-04-23T01:59:26;9.93;;;6.90;;
14013;SDS011;49110;52.584;13.408;2023-04-23T02:00:26;7.40;;;6.60;;
14013;SDS011;49110;52.584;13.408;2023-04-23T02:01:45;9.03;;;6.63;;
14013;SDS011;49110;52.584;13.408;2023-04-23T02:02:46;7.10;;;6.40;;
14013;SDS011;49110;52.584;13.408;2023-04-23T02:03:48;9.13;;;6.70;;
14013;SDS011;49110;52.584;13.408;2023-04-23T02:04:49;8.50;;;6.43;;
14013;SDS011;49110;52.584;13.408;2023-04-23T02:05:52;13.03;;;7.00;;
14013;SDS011;49110;52.584;13.408;2023-04-23T02:06:54;7.77;;;7.00;;
14013;SDS011;49110;52.584;13.408;2023-04-23T02:07:55;8.83;;;7.27;;
14013;SDS011;49110;52.584;13.408;2023-04-23T02:08:56;7.47;;;6.73;;
14013;SDS011;49110;52.584;13.408;2023-04-23T02:09:56;10.90;;;6.40;;
14013;SDS011;49110;52.584;13.408;2023-04-23T02:10:57;6.70;;;6.03;;
14013;SDS011;49110;52.584;13.408;2023-04-23T02:11:57;10.20;;;7.13;;
14013;SDS011;49110;52.584;13.408;2023-04-23T02:12:58;10.47;;;7.00;;
14013;SDS011;49110;52.584;13.408;2023-04-23T02:14:00;7.93;;;6.33;;
14013;SDS011;49110;52.584;13.408;2023-04-23T02:15:01;7.90;;;6.63;;
14013;SDS011;49110;52.584;13.408;2023-04-23T02:16:02;10.00;;;7.00;;
14013;SDS011;49110;52.584;13.408;2023-04-23T02:17:02;7.67;;;6.97;;
14013;SDS011;49110;52.584;13.408;2023-04-23T02:18:03;10.97;;;6.80;;
14013;SDS011;49110;52.584;13.408;2023-04-23T02:19:04;7.70;;;6.90;;
14013;SDS011;49110;52.584;13.408;2023-04-23T02:20:05;7.90;;;7.10;;
14013;SDS011;49110;52.584;13.408;2023-04-23T02:21:08;10.97;;;7.87;;
14013;SDS011;49110;52.584;13.408;2023-04-23T02:22:09;12.77;;;8.23;;
14013;SDS011;49110;52.584;13.408;2023-04-23T02:23:09;9.83;;;7.60;;
14013;SDS011;49110;52.584;13.408;2023-04-23T02:24:11;9.00;;;8.10;;
14013;SDS011;49110;52.584;13.408;2023-04-23T02:25:11;13.07;;;8.57;;
14013;SDS011;49110;52.584;13.408;2023-04-23T02:26:14;10.40;;;8.27;;
14013;SDS011;49110;52.584;13.408;2023-04-23T02:27:15;11.63;;;8.37;;
14013;SDS011;49110;52.584;13.408;2023-04-23T02:28:16;8.43;;;7.57;;
14013;SDS011;49110;52.584;13.408;2023-04-23T02:29:16;10.37;;;8.10;;
14013;SDS011;49110;52.584;13.408;2023-04-23T02:30:16;10.13;;;8.00;;
14013;SDS011;49110;52.584;13.408;2023-04-23T02:31:18;8.40;;;7.60;;
14013;SDS011;49110;52.584;13.408;2023-04-23T02:32:19;10.63;;;7.43;;
14013;SDS011;49110;52.584;13.408;2023-04-23T02:33:20;9.13;;;8.23;;
14013;SDS011;49110;52.584;13.408;2023-04-23T02:34:20;8.43;;;7.20;;
14013;SDS011;49110;52.584;13.408;2023-04-23T02:35:21;9.93;;;8.47;;
14013;SDS011;49110;52.584;13.408;2023-04-23T02:36:22;10.13;;;9.17;;
14013;SDS011;49110;52.584;13.408;2023-04-23T02:37:23;8.90;;;8.10;;
14013;SDS011;49110;52.584;13.408;2023-04-23T02:38:23;9.37;;;8.33;;
14013;SDS011;49110;52.584;13.408;2023-04-23T02:39:24;9.90;;;8.90;;
14013;SDS011;49110;52.584;13.408;2023-04-23T02:40:25;10.00;;;8.40;;
14013;SDS011;49110;52.584;13.408;2023-04-23T02:41:25;9.00;;;7.80;;
14013;SDS011;49110;52.584;13.408;2023-04-23T02:42:26;9.20;;;8.30;;
14013;SDS011;49110;52.584;13.408;2023-04-23T02:43:26;9.40;;;8.60;;
14013;SDS011;49110;52.584;13.408;2023-04-23T02:44:27;11.63;;;9.00;;
14013;SDS011;49110;52.584;13.408;2023-04-23T02:45:27;9.53;;;8.53;;
14013;SDS011;49110;52.584;13.408;2023-04-23T02:46:27;10.20;;;8.40;;
14013;SDS011;49110;52.584;13.408;2023-04-23T02:47:28;11.93;;;8.80;;
14013;SDS011;49110;52.584;13.408;2023-04-23T02:48:30;9.53;;;8.53;;
14013;SDS011;49110;52.584;13.408;2023-04-23T02:49:30;10.30;;;8.83;;
14013;SDS011;49110;52.584;13.408;2023-04-23T02:50:31;10.47;;;8.63;;
14013;SDS011;49110;52.584;13.408;2023-04-23T02:51:31;10.00;;;9.07;;
14013;SDS011;49110;52.584;13.408;2023-04-23T02:52:32;11.00;;;8.90;;
14013;SDS011;49110;52.584;13.408;2023-04-23T02:53:33;10.73;;;9.00;;
14013;SDS011;49110;52.584;13.408;2023-04-23T02:54:33;10.73;;;9.63;;
14013;SDS011;49110;52.584;13.408;2023-04-23T02:55:35;11.20;;;10.07;;
14013;SDS011;49110;52.584;13.408;2023-04-23T02:56:36;11.67;;;9.33;;
14013;SDS011;49110;52.584;13.408;2023-04-23T02:57:37;10.80;;;9.63;;
14013;SDS011;49110;52.584;13.408;2023-04-23T02:58:38;12.27;;;9.60;;
14013;SDS011;49110;52.584;13.408;2023-04-23T02:59:39;10.70;;;9.70;;
14013;SDS011;49110;52.584;13.408;2023-04-23T03:00:39;10.23;;;8.67;;
14013;SDS011;49110;52.584;13.408;2023-04-23T03:01:40;10.60;;;8.90;;
14013;SDS011;49110;52.584;13.408;2023-04-23T03:02:40;10.23;;;8.73;;
14013;SDS011;49110;52.584;13.408;2023-04-23T03:03:41;10.07;;;9.07;;
14013;SDS011;49110;52.584;13.408;2023-04-23T03:04:42;9.20;;;8.37;;
14013;SDS011;49110;52.584;13.408;2023-04-23T03:05:42;10.60;;;8.37;;
14013;SDS011;49110;52.584;13.408;2023-04-23T03:06:43;11.10;;;9.17;;
14013;SDS011;49110;52.584;13.408;2023-04-23T03:07:43;10.07;;;9.17;;
14013;SDS011;49110;52.584;13.408;2023-04-23T03:08:43;9.40;;;8.50;;
14013;SDS011;49110;52.584;13.408;2023-04-23T03:09:44;10.00;;;9.13;;
14013;SDS011;49110;52.584;13.408;2023-04-23T03:10:45;10.40;;;9.30;;
14013;SDS011;49110;52.584;13.408;2023-04-23T03:11:46;9.97;;;8.87;;
14013;SDS011;49110;52.584;13.408;2023-04-23T03:12:46;9.57;;;8.57;;
14013;SDS011;49110;52.584;13.408;2023-04-23T03:13:47;10.67;;;8.27;;
14013;SDS011;49110;52.584;13.408;2023-04-23T03:14:47;9.87;;;8.90;;
14013;SDS011;49110;52.584;13.408;2023-04-23T03:15:49;8.83;;;7.93;;
14013;SDS011;49110;52.584;13.408;2023-04-23T03:16:50;10.10;;;8.60;;
14013;SDS011;49110;52.584;13.408;2023-04-23T03:17:50;9.40;;;8.40;;
14013;SDS011;49110;52.584;13.408;2023-04-23T03:18:52;9.87;;;8.77;;
14013;SDS011;49110;52.584;13.408;2023-04-23T03:19:53;9.47;;;8.50;;
14013;SDS011;49110;52.584;13.408;2023-04-23T03:20:53;9.53;;;8.47;;
14013;SDS011;49110;52.584;13.408;2023-04-23T03:21:54;9.60;;;8.70;;
14013;SDS011;49110;52.584;13.408;2023-04-23T03:22:54;10.10;;;9.10;;
14013;SDS011;49110;52.584;13.408;2023-04-23T03:23:55;10.07;;;9.07;;
14013;SDS011;49110;52.584;13.408;2023-04-23T03:24:55;9.97;;;9.07;;
14013;SDS011;49110;52.584;13.408;2023-04-23T03:25:56;9.50;;;8.60;;
14013;SDS011;49110;52.584;13.408;2023-04-23T03:26:56;9.43;;;8.63;;
14013;SDS011;49110;52.584;13.408;2023-04-23T03:27:57;10.73;;;8.90;;
14013;SDS011;49110;52.584;13.408;2023-04-23T03:28:57;10.00;;;8.90;;
14013;SDS011;49110;52.584;13.408;2023-04-23T03:29:58;9.47;;;8.57;;
14013;SDS011;49110;52.584;13.408;2023-04-23T03:30:58;9.33;;;8.53;;
14013;SDS011;49110;52.584;13.408;2023-04-23T03:31:59;10.00;;;9.00;;
14013;SDS011;49110;52.584;13.408;2023-04-23T03:32:59;9.23;;;8.33;;
14013;SDS011;49110;52.584;13.408;2023-04-23T03:34:01;9.57;;;8.67;;
14013;SDS011;49110;52.584;13.408;2023-04-23T03:35:02;9.93;;;8.93;;
14013;SDS011;49110;52.584;13.408;2023-04-23T03:36:03;12.67;;;9.13;;
14013;SDS011;49110;52.584;13.408;2023-04-23T03:37:04;9.63;;;8.73;;
14013;SDS011;49110;52.584;13.408;2023-04-23T03:38:05;9.57;;;8.67;;
14013;SDS011;49110;52.584;13.408;2023-04-23T03:39:05;9.53;;;8.63;;
14013;SDS011;49110;52.584;13.408;2023-04-23T03:40:06;10.57;;;9.17;;
14013;SDS011;49110;52.584;13.408;2023-04-23T03:41:08;10.30;;;9.20;;
14013;SDS011;49110;52.584;13.408;2023-04-23T03:42:10;9.80;;;8.90;;
14013;SDS011;49110;52.584;13.408;2023-04-23T03:43:10;10.57;;;9.43;;
14013;SDS011;49110;52.584;13.408;2023-04-23T03:44:10;9.90;;;9.00;;
14013;SDS011;49110;52.584;13.408;2023-04-23T03:45:11;9.93;;;8.40;;
14013;SDS011;49110;52.584;13.408;2023-04-23T03:46:12;9.90;;;9.10;;
14013;SDS011;49110;52.584;13.408;2023-04-23T03:47:12;11.07;;;9.23;;
14013;SDS011;49110;52.584;13.408;2023-04-23T03:48:13;10.20;;;9.10;;
14013;SDS011;49110;52.584;13.408;2023-04-23T03:49:13;9.47;;;8.67;;
14013;SDS011;49110;52.584;13.408;2023-04-23T03:50:14;11.33;;;9.30;;
14013;SDS011;49110;52.584;13.408;2023-04-23T03:51:16;10.97;;;8.43;;
14013;SDS011;49110;52.584;13.408;2023-04-23T03:52:16;10.07;;;9.07;;
14013;SDS011;49110;52.584;13.408;2023-04-23T03:53:17;9.33;;;8.37;;
14013;SDS011;49110;52.584;13.408;2023-04-23T03:54:17;9.10;;;8.30;;
14013;SDS011;49110;52.584;13.408;2023-04-23T03:55:18;9.73;;;8.73;;
14013;SDS011;49110;52.584;13.408;2023-04-23T03:56:19;9.40;;;8.47;;
14013;SDS011;49110;52.584;13.408;2023-04-23T03:57:20;10.83;;;9.40;;
14013;SDS011;49110;52.584;13.408;2023-04-23T03:58:20;10.97;;;8.73;;
14013;SDS011;49110;52.584;13.408;2023-04-23T03:59:21;9.37;;;8.40;;
14013;SDS011;49110;52.584;13.408;2023-04-23T04:00:21;9.53;;;8.53;;
14013;SDS011;49110;52.584;13.408;2023-04-23T04:01:22;9.20;;;8.30;;
14013;SDS011;49110;52.584;13.408;2023-04-23T04:02:22;8.87;;;8.10;;
14013;SDS011;49110;52.584;13.408;2023-04-23T04:03:23;9.37;;;7.80;;
14013;SDS011;49110;52.584;13.408;2023-04-23T04:04:24;10.50;;;8.07;;
14013;SDS011;49110;52.584;13.408;2023-04-23T04:05:25;9.13;;;8.33;;
14013;SDS011;49110;52.584;13.408;2023-04-23T04:06:25;10.13;;;8.20;;
14013;SDS011;49110;52.584;13.408;2023-04-23T04:07:26;8.77;;;7.80;;
14013;SDS011;49110;52.584;13.408;2023-04-23T04:08:27;8.93;;;7.80;;
14013;SDS011;49110;52.584;13.408;2023-04-23T04:09:28;8.40;;;7.57;;
14013;SDS011;49110;52.584;13.408;2023-04-23T04:10:29;9.13;;;8.23;;
14013;SDS011;49110;52.584;13.408;2023-04-23T04:11:30;11.87;;;8.37;;
14013;SDS011;49110;52.584;13.408;2023-04-23T04:12:30;9.83;;;8.87;;
14013;SDS011;49110;52.584;13.408;2023-04-23T04:13:30;9.30;;;8.47;;
14013;SDS011;49110;52.584;13.408;2023-04-23T04:14:31;9.80;;;8.80;;
14013;SDS011;49110;52.584;13.408;2023-04-23T04:15:32;9.33;;;8.43;;
14013;SDS011;49110;52.584;13.408;2023-04-23T04:16:32;10.17;;;8.73;;
14013;SDS011;49110;52.584;13.408;2023-04-23T04:17:33;10.30;;;8.40;;
14013;SDS011;49110;52.584;13.408;2023-04-23T04:18:33;9.90;;;8.90;;
14013;SDS011;49110;52.584;13.408;2023-04-23T04:19:34;9.40;;;8.50;;
14013;SDS011;49110;52.584;13.408;2023-04-23T04:20:34;9.27;;;8.37;;
14013;SDS011;49110;52.584;13.408;2023-04-23T04:21:35;9.83;;;8.77;;
14013;SDS011;49110;52.584;13.408;2023-04-23T04:22:35;11.37;;;8.30;;
14013;SDS011;49110;52.584;13.408;2023-04-23T04:23:36;9.83;;;8.83;;
14013;SDS011;49110;52.584;13.408;2023-04-23T04:24:36;9.80;;;8.87;;
14013;SDS011;49110;52.584;13.408;2023-04-23T04:25:37;9.33;;;8.43;;
14013;SDS011;49110;52.584;13.408;2023-04-23T04:26:41;9.47;;;8.53;;
14013;SDS011;49110;52.584;13.408;2023-04-23T04:27:43;11.23;;;8.50;;
14013;SDS011;49110;52.584;13.408;2023-04-23T04:28:43;9.30;;;8.30;;
14013;SDS011;49110;52.584;13.408;2023-04-23T04:29:44;11.27;;;8.20;;
14013;SDS011;49110;52.584;13.408;2023-04-23T04:30:44;9.23;;;8.20;;
14013;SDS011;49110;52.584;13.408;2023-04-23T04:31:46;8.67;;;7.90;;
14013;SDS011;49110;52.584;13.408;2023-04-23T04:32:47;9.13;;;8.33;;
14013;SDS011;49110;52.584;13.408;2023-04-23T04:33:49;8.77;;;7.97;;
14013;SDS011;49110;52.584;13.408;2023-04-23T04:34:50;8.37;;;7.57;;
14013;SDS011;49110;52.584;13.408;2023-04-23T04:35:51;8.27;;;7.47;;
14013;SDS011;49110;52.584;13.408;2023-04-23T04:36:53;8.70;;;7.90;;
14013;SDS011;49110;52.584;13.408;2023-04-23T04:37:54;9.10;;;8.20;;
14013;SDS011;49110;52.584;13.408;2023-04-23T04:38:55;8.10;;;7.40;;
14013;SDS011;49110;52.584;13.408;2023-04-23T04:39:57;8.53;;;7.63;;
14013;SDS011;49110;52.584;13.408;2023-04-23T04:40:59;8.17;;;7.40;;
14013;SDS011;49110;52.584;13.408;2023-04-23T04:42:01;8.77;;;7.23;;
14013;SDS011;49110;52.584;13.408;2023-04-23T04:43:02;8.00;;;7.23;;
14013;SDS011;49110;52.584;13.408;2023-04-23T04:44:06;7.53;;;6.77;;
14013;SDS011;49110;52.584;13.408;2023-04-23T04:45:07;8.80;;;6.93;;
14013;SDS011;49110;52.584;13.408;2023-04-23T04:46:09;7.37;;;6.30;;
14013;SDS011;49110;52.584;13.408;2023-04-23T04:47:10;8.37;;;7.10;;
14013;SDS011;49110;52.584;13.408;2023-04-23T04:48:12;7.57;;;6.90;;
14013;SDS011;49110;52.584;13.408;2023-04-23T04:49:12;7.17;;;6.47;;
14013;SDS011;49110;52.584;13.408;2023-04-23T04:50:13;7.83;;;6.40;;
14013;SDS011;49110;52.584;13.408;2023-04-23T04:51:13;8.23;;;6.47;;
14013;SDS011;49110;52.584;13.408;2023-04-23T04:52:14;7.80;;;6.60;;
14013;SDS011;49110;52.584;13.408;2023-04-23T04:53:15;8.37;;;6.87;;
14013;SDS011;49110;52.584;13.408;2023-04-23T04:54:16;8.00;;;6.30;;
14013;SDS011;49110;52.584;13.408;2023-04-23T04:55:16;7.70;;;6.47;;
14013;SDS011;49110;52.584;13.408;2023-04-23T04:56:17;8.50;;;6.83;;
14013;SDS011;49110;52.584;13.408;2023-04-23T04:57:17;7.60;;;6.40;;
14013;SDS011;49110;52.584;13.408;2023-04-23T04:58:20;7.60;;;6.90;;
14013;SDS011;49110;52.584;13.408;2023-04-23T04:59:20;8.83;;;7.07;;
14013;SDS011;49110;52.584;13.408;2023-04-23T05:00:22;7.60;;;6.77;;
14013;SDS011;49110;52.584;13.408;2023-04-23T05:01:27;8.93;;;6.70;;
14013;SDS011;49110;52.584;13.408;2023-04-23T05:02:27;6.70;;;6.00;;
14013;SDS011;49110;52.584;13.408;2023-04-23T05:03:28;7.17;;;6.57;;
14013;SDS011;49110;52.584;13.408;2023-04-23T05:04:28;6.97;;;6.37;;
14013;SDS011;49110;52.584;13.408;2023-04-23T05:05:31;6.90;;;6.07;;
14013;SDS011;49110;52.584;13.408;2023-04-23T05:06:32;7.80;;;6.30;;
14013;SDS011;49110;52.584;13.408;2023-04-23T05:07:32;6.60;;;6.00;;
14013;SDS011;49110;52.584;13.408;2023-04-23T05:08:33;6.63;;;5.73;;
14013;SDS011;49110;52.584;13.408;2023-04-23T05:09:33;9.43;;;5.87;;
14013;SDS011;49110;52.584;13.408;2023-04-23T05:10:34;7.43;;;5.50;;
14013;SDS011;49110;52.584;13.408;2023-04-23T05:11:34;6.63;;;5.67;;
14013;SDS011;49110;52.584;13.408;2023-04-23T05:12:35;8.63;;;6.07;;
14013;SDS011;49110;52.584;13.408;2023-04-23T05:13:36;8.37;;;6.33;;
14013;SDS011;49110;52.584;13.408;2023-04-23T05:14:36;6.33;;;5.70;;
14013;SDS011;49110;52.584;13.408;2023-04-23T05:15:37;7.63;;;6.00;;
14013;SDS011;49110;52.584;13.408;2023-04-23T05:16:37;7.03;;;5.80;;
14013;SDS011;49110;52.584;13.408;2023-04-23T05:17:38;8.80;;;6.17;;
14013;SDS011;49110;52.584;13.408;2023-04-23T05:18:39;6.20;;;5.60;;
14013;SDS011;49110;52.584;13.408;2023-04-23T05:19:41;6.17;;;5.57;;
14013;SDS011;49110;52.584;13.408;2023-04-23T05:20:41;6.30;;;5.70;;
14013;SDS011;49110;52.584;13.408;2023-04-23T05:21:42;6.23;;;5.60;;
14013;SDS011;49110;52.584;13.408;2023-04-23T05:22:42;8.17;;;6.07;;
14013;SDS011;49110;52.584;13.408;2023-04-23T05:23:43;9.17;;;5.97;;
14013;SDS011;49110;52.584;13.408;2023-04-23T05:24:43;6.23;;;5.63;;
14013;SDS011;49110;52.584;13.408;2023-04-23T05:25:45;7.83;;;5.80;;
14013;SDS011;49110;52.584;13.408;2023-04-23T05:26:45;5.90;;;5.30;;
14013;SDS011;49110;52.584;13.408;2023-04-23T05:27:46;6.77;;;5.87;;
14013;SDS011;49110;52.584;13.408;2023-04-23T05:28:46;7.30;;;5.60;;
14013;SDS011;49110;52.584;13.408;2023-04-23T05:29:47;8.17;;;5.80;;
14013;SDS011;49110;52.584;13.408;2023-04-23T05:30:48;7.00;;;5.07;;
14013;SDS011;49110;52.584;13.408;2023-04-23T05:31:49;5.77;;;5.20;;
14013;SDS011;49110;52.584;13.408;2023-04-23T05:32:49;6.00;;;5.50;;
14013;SDS011;49110;52.584;13.408;2023-04-23T05:33:50;6.37;;;5.63;;
14013;SDS011;49110;52.584;13.408;2023-04-23T05:34:51;7.53;;;5.60;;
14013;SDS011;49110;52.584;13.408;2023-04-23T05:35:52;7.13;;;6.03;;
14013;SDS011;49110;52.584;13.408;2023-04-23T05:36:53;8.03;;;5.93;;
14013;SDS011;49110;52.584;13.408;2023-04-23T05:37:54;6.87;;;5.43;;
14013;SDS011;49110;52.584;13.408;2023-04-23T05:38:55;8.27;;;5.50;;
14013;SDS011;49110;52.584;13.408;2023-04-23T05:39:56;6.20;;;5.60;;
14013;SDS011;49110;52.584;13.408;2023-04-23T05:41:01;6.13;;;5.53;;
14013;SDS011;49110;52.584;13.408;2023-04-23T05:42:01;6.00;;;5.40;;
14013;SDS011;49110;52.584;13.408;2023-04-23T05:43:02;5.47;;;4.90;;
14013;SDS011;49110;52.584;13.408;2023-04-23T05:44:03;6.63;;;5.33;;
14013;SDS011;49110;52.584;13.408;2023-04-23T05:45:03;13.70;;;7.13;;
14013;SDS011;49110;52.584;13.408;2023-04-23T05:46:05;9.17;;;5.90;;
14013;SDS011;49110;52.584;13.408;2023-04-23T05:47:06;7.77;;;5.50;;
14013;SDS011;49110;52.584;13.408;2023-04-23T05:48:08;7.07;;;6.37;;
14013;SDS011;49110;52.584;13.408;2023-04-23T05:49:08;9.17;;;7.97;;
14013;SDS011;49110;52.584;13.408;2023-04-23T05:50:09;8.37;;;7.57;;
14013;SDS011;49110;52.584;13.408;2023-04-23T05:51:10;8.73;;;7.13;;
14013;SDS011;49110;52.584;13.408;2023-04-23T05:52:11;9.87;;;6.97;;
14013;SDS011;49110;52.584;13.408;2023-04-23T05:53:11;7.80;;;5.70;;
14013;SDS011;49110;52.584;13.408;2023-04-23T05:54:12;6.10;;;5.50;;
14013;SDS011;49110;52.584;13.408;2023-04-23T05:55:12;8.37;;;6.07;;
14013;SDS011;49110;52.584;13.408;2023-04-23T05:56:17;8.37;;;6.23;;
14013;SDS011;49110;52.584;13.408;2023-04-23T05:57:17;9.30;;;6.00;;
14013;SDS011;49110;52.584;13.408;2023-04-23T05:58:18;8.37;;;5.87;;
14013;SDS011;49110;52.584;13.408;2023-04-23T05:59:18;8.17;;;5.77;;
14013;SDS011;49110;52.584;13.408;2023-04-23T06:00:19;7.37;;;5.57;;